createdAt,value
2023-04-10T00:02:26.062Z,6.67
2023-04-10T00:04:53.724Z,5.90
2023-04-10T00:07:21.144Z,5.80
2023-04-10T00:09:48.616Z,5.90
2023-04-10T00:12:15.845Z,6.50
2023-04-10T00:14:43.009Z,5.83
2023-04-10T00:17:10.340Z,6.60
2023-04-10T00:19:37.532Z,6.13
2023-04-10T00:22:05.642Z,6.30
2023-04-10T00:24:32.806Z,6.03
2023-04-10T00:26:59.929Z,6.57
2023-04-10T00:29:27.130Z,6.50
2023-04-10T00:31:54.409Z,7.93
2023-04-10T00:34:21.658Z,5.60
2023-04-10T00:36:48.821Z,5.53
2023-04-10T00:39:16.051Z,5.80
2023-04-10T00:41:43.231Z,6.03
2023-04-10T00:44:10.413Z,6.10
2023-04-10T00:46:38.515Z,5.67
2023-04-10T00:49:06.524Z,6.43
2023-04-10T00:51:33.994Z,5.53
2023-04-10T00:54:02.699Z,5.53
2023-04-10T00:56:34.266Z,5.87
2023-04-10T00:59:04.080Z,6.47
2023-04-10T01:01:32.427Z,5.37
2023-04-10T01:04:00.325Z,6.50
2023-04-10T01:06:32.063Z,6.73
2023-04-10T01:09:02.368Z,5.73
2023-04-10T01:11:44.833Z,5.50
2023-04-10T01:14:11.934Z,5.43
2023-04-10T01:16:49.833Z,6.37
2023-04-10T01:19:35.955Z,5.73
2023-04-10T01:22:04.732Z,5.93
2023-04-10T01:24:44.136Z,5.93
2023-04-10T01:27:29.851Z,7.07
2023-04-10T01:29:58.255Z,6.23
2023-04-10T01:32:26.020Z,5.83
2023-04-10T01:34:55.471Z,5.00
2023-04-10T01:37:28.222Z,6.23
2023-04-10T01:40:00.178Z,6.87
2023-04-10T01:42:28.730Z,5.07
2023-04-10T01:44:56.195Z,5.50
2023-04-10T01:47:23.856Z,6.73
2023-04-10T01:49:51.295Z,5.70
2023-04-10T01:52:18.783Z,6.57
2023-04-10T01:54:48.462Z,5.83
2023-04-10T01:57:16.684Z,7.10
2023-04-10T01:59:44.173Z,5.83
2023-04-10T02:02:12.288Z,6.13
2023-04-10T02:04:39.935Z,6.23
2023-04-10T02:07:28.438Z,5.57
2023-04-10T02:09:59.472Z,5.10
2023-04-10T02:12:29.759Z,6.10
2023-04-10T02:14:58.194Z,6.67
2023-04-10T02:17:28.841Z,6.47
2023-04-10T02:19:59.414Z,5.40
2023-04-10T02:22:27.042Z,5.83
2023-04-10T02:24:54.754Z,6.57
2023-04-10T02:27:29.096Z,6.40
2023-04-10T02:29:56.797Z,5.40
2023-04-10T02:32:24.420Z,6.07
2023-04-10T02:34:52.820Z,5.93
2023-04-10T02:37:19.931Z,6.00
2023-04-10T02:39:47.094Z,5.30
2023-04-10T02:42:14.296Z,7.57
2023-04-10T02:44:42.656Z,6.17
2023-04-10T02:47:10.036Z,6.07
2023-04-10T02:49:37.265Z,7.10
2023-04-10T02:52:04.407Z,5.53
2023-04-10T02:54:31.548Z,6.70
2023-04-10T02:56:59.664Z,6.43
2023-04-10T02:59:27.763Z,6.30
2023-04-10T03:01:55.038Z,6.57
2023-04-10T03:04:22.320Z,7.57
2023-04-10T03:06:49.567Z,7.27
2023-04-10T03:09:16.971Z,7.00
2023-04-10T03:11:44.111Z,6.50
2023-04-10T03:14:11.219Z,6.60
2023-04-10T03:16:38.443Z,7.90
2023-04-10T03:19:05.729Z,6.90
2023-04-10T03:21:32.951Z,7.10
2023-04-10T03:24:00.997Z,5.90
2023-04-10T03:26:28.742Z,7.00
2023-04-10T03:28:55.912Z,7.90
2023-04-10T03:31:23.135Z,6.30
2023-04-10T03:33:50.395Z,5.97
2023-04-10T03:36:18.039Z,7.83
2023-04-10T03:38:45.255Z,5.80
2023-04-10T03:41:12.450Z,6.63
2023-04-10T03:43:40.322Z,6.43
2023-04-10T03:46:07.567Z,6.20
2023-04-10T03:48:34.761Z,6.20
2023-04-10T03:51:02.796Z,6.63
2023-04-10T03:53:30.040Z,6.60
2023-04-10T03:55:57.262Z,6.43
2023-04-10T03:58:24.390Z,6.57
2023-04-10T04:00:51.593Z,6.97
2023-04-10T04:03:18.964Z,6.17
2023-04-10T04:05:46.308Z,6.63
2023-04-10T04:08:14.057Z,6.93
2023-04-10T04:10:41.203Z,6.77
2023-04-10T04:13:08.319Z,8.00
2023-04-10T04:15:35.483Z,5.43
2023-04-10T04:18:02.672Z,6.80
2023-04-10T04:20:29.885Z,7.43
2023-04-10T04:22:57.047Z,7.33
2023-04-10T04:25:24.180Z,9.20
2023-04-10T04:27:51.677Z,6.53
2023-04-10T04:30:18.953Z,7.03
2023-04-10T04:32:46.122Z,6.40
2023-04-10T04:35:13.285Z,6.10
2023-04-10T04:37:40.783Z,5.60
2023-04-10T04:40:08.196Z,6.00
2023-04-10T04:42:35.810Z,7.93
2023-04-10T04:45:02.942Z,6.50
2023-04-10T04:47:30.239Z,5.57
2023-04-10T04:49:57.580Z,6.27
2023-04-10T04:52:25.639Z,6.17
2023-04-10T04:54:52.817Z,5.63
2023-04-10T04:57:19.947Z,6.10
2023-04-10T04:59:47.129Z,6.00
2023-04-10T05:02:14.405Z,5.27
2023-04-10T05:04:42.040Z,7.97
2023-04-10T05:07:09.194Z,6.37
2023-04-10T05:09:36.452Z,5.87
2023-04-10T05:12:03.893Z,5.60
2023-04-10T05:14:31.029Z,5.70
2023-04-10T05:16:58.160Z,6.27
2023-04-10T05:19:25.537Z,5.90
2023-04-10T05:21:52.725Z,5.57
2023-04-10T05:24:19.998Z,6.13
2023-04-10T05:26:47.462Z,6.73
2023-04-10T05:29:14.659Z,5.50
2023-04-10T05:31:41.864Z,5.63
2023-04-10T05:34:09.044Z,5.80
2023-04-10T05:36:36.792Z,5.33
2023-04-10T05:39:03.946Z,5.50
2023-04-10T05:41:31.227Z,7.37
2023-04-10T05:43:58.349Z,5.47
2023-04-10T05:46:25.630Z,5.53
2023-04-10T05:48:54.098Z,5.43
2023-04-10T05:51:21.394Z,6.00
2023-04-10T05:53:49.321Z,8.00
2023-04-10T05:56:16.599Z,7.20
2023-04-10T05:58:43.773Z,5.60
2023-04-10T06:01:11.419Z,5.70
2023-04-10T06:03:38.896Z,5.37
2023-04-10T06:06:07.630Z,4.70
2023-04-10T06:08:34.761Z,5.33
2023-04-10T06:11:01.916Z,5.90
2023-04-10T06:13:29.133Z,7.40
2023-04-10T06:15:56.330Z,5.67
2023-04-10T06:18:23.490Z,6.23
2023-04-10T06:20:50.719Z,4.70
2023-04-10T06:23:17.899Z,5.63
2023-04-10T06:25:45.098Z,5.87
2023-04-10T06:28:12.293Z,6.23
2023-04-10T06:30:39.611Z,5.40
2023-04-10T06:33:06.768Z,4.80
2023-04-10T06:35:33.907Z,5.00
2023-04-10T06:38:01.271Z,4.67
2023-04-10T06:40:29.437Z,6.57
2023-04-10T06:42:56.616Z,4.10
2023-04-10T06:45:23.807Z,4.87
2023-04-10T06:47:51.020Z,4.60
2023-04-10T06:50:18.205Z,4.53
2023-04-10T06:52:45.694Z,5.30
2023-04-10T06:55:13.131Z,6.07
2023-04-10T06:57:40.562Z,4.57
2023-04-10T07:00:08.273Z,5.07
2023-04-10T07:02:35.483Z,3.97
2023-04-10T07:05:02.773Z,5.40
2023-04-10T07:07:30.005Z,5.10
2023-04-10T07:09:57.935Z,5.37
2023-04-10T07:12:25.348Z,5.10
2023-04-10T07:14:52.470Z,5.13
2023-04-10T07:17:19.700Z,4.03
2023-04-10T07:19:46.983Z,4.43
2023-04-10T07:22:14.763Z,3.43
2023-04-10T07:24:41.950Z,4.80
2023-04-10T07:27:09.134Z,4.50
2023-04-10T07:29:36.392Z,4.13
2023-04-10T07:32:03.641Z,5.07
2023-04-10T07:34:32.184Z,4.10
2023-04-10T07:36:59.392Z,5.33
2023-04-10T07:39:26.690Z,3.90
2023-04-10T07:41:57.017Z,3.47
2023-04-10T07:44:24.149Z,5.17
2023-04-10T07:46:52.313Z,5.37
2023-04-10T07:49:19.469Z,5.30
2023-04-10T07:51:46.608Z,4.97
2023-04-10T07:54:13.741Z,4.23
2023-04-10T07:56:40.968Z,3.93
2023-04-10T07:59:08.116Z,5.57
2023-04-10T08:01:35.694Z,5.17
2023-04-10T08:04:05.666Z,4.57
2023-04-10T08:06:33.391Z,4.07
2023-04-10T08:09:02.013Z,4.63
2023-04-10T08:11:30.103Z,5.27
2023-04-10T08:13:58.709Z,4.53
2023-04-10T08:16:26.578Z,5.70
2023-04-10T08:18:54.847Z,4.57
2023-04-10T08:21:22.659Z,4.33
2023-04-10T08:23:52.800Z,5.93
2023-04-10T08:26:20.176Z,6.13
2023-04-10T08:28:51.276Z,4.70
2023-04-10T08:31:19.259Z,4.93
2023-04-10T08:33:46.600Z,3.53
2023-04-10T08:36:19.845Z,4.40
2023-04-10T08:38:47.595Z,4.33
2023-04-10T08:41:15.712Z,6.43
2023-04-10T08:43:43.859Z,4.27
2023-04-10T08:46:11.934Z,5.07
2023-04-10T08:48:41.080Z,4.43
2023-04-10T08:51:15.563Z,4.77
2023-04-10T08:53:47.220Z,4.73
2023-04-10T08:56:15.397Z,4.33
2023-04-10T08:58:43.040Z,4.03
2023-04-10T09:01:13.585Z,5.33
2023-04-10T09:03:40.955Z,5.77
2023-04-10T09:06:08.422Z,4.50
2023-04-10T09:08:35.916Z,5.00
2023-04-10T09:11:03.138Z,3.70
2023-04-10T09:13:37.916Z,4.77
2023-04-10T09:16:05.488Z,4.20
2023-04-10T09:18:41.553Z,4.07
2023-04-10T09:21:12.562Z,3.63
2023-04-10T09:23:39.722Z,4.90
2023-04-10T09:26:27.744Z,3.87
2023-04-10T09:28:57.903Z,5.20
2023-04-10T09:31:32.649Z,5.07
2023-04-10T09:34:16.102Z,5.03
2023-04-10T09:36:43.993Z,5.20
2023-04-10T09:39:12.064Z,4.67
2023-04-10T09:41:49.685Z,3.73
2023-04-10T09:44:18.704Z,3.10
2023-04-10T09:46:46.183Z,3.07
2023-04-10T09:49:13.452Z,3.80
2023-04-10T09:51:40.637Z,2.80
2023-04-10T09:54:07.863Z,4.37
2023-04-10T09:56:37.242Z,3.63
2023-04-10T09:59:04.859Z,3.13
2023-04-10T10:01:34.839Z,4.33
2023-04-10T10:04:03.413Z,4.97
2023-04-10T10:06:34.714Z,3.13
2023-04-10T10:09:05.221Z,4.17
2023-04-10T10:11:35.980Z,4.03
2023-04-10T10:14:04.477Z,3.77
2023-04-10T10:16:31.653Z,4.27
2023-04-10T10:19:17.126Z,5.53
2023-04-10T10:21:45.784Z,4.90
2023-04-10T10:24:13.834Z,3.90
2023-04-10T10:26:41.288Z,4.53
2023-04-10T10:29:13.951Z,4.53
2023-04-10T10:31:41.347Z,3.70
2023-04-10T10:34:09.684Z,3.93
2023-04-10T10:36:37.686Z,4.93
2023-04-10T10:39:04.974Z,4.13
2023-04-10T10:41:36.021Z,5.17
2023-04-10T10:44:12.088Z,6.10
2023-04-10T10:46:45.519Z,3.93
2023-04-10T10:49:12.636Z,4.70
2023-04-10T10:51:50.269Z,4.63
2023-04-10T10:54:29.681Z,4.60
2023-04-10T10:56:56.966Z,4.70
2023-04-10T10:59:42.589Z,5.17
2023-04-10T11:02:19.965Z,4.27
2023-04-10T11:04:48.451Z,4.67
2023-04-10T11:07:16.579Z,5.37
2023-04-10T11:09:48.590Z,5.87
2023-04-10T11:12:16.542Z,4.20
2023-04-10T11:14:44.503Z,4.37
2023-04-10T11:17:12.051Z,4.20
2023-04-10T11:20:11.477Z,5.33
2023-04-10T11:22:58.553Z,4.53
2023-04-10T11:25:45.648Z,5.33
2023-04-10T11:28:35.904Z,6.73
2023-04-10T11:31:22.778Z,4.57
2023-04-10T11:34:13.192Z,5.37
2023-04-10T11:36:41.547Z,4.63
2023-04-10T11:39:28.902Z,4.73
2023-04-10T11:41:57.673Z,5.83
2023-04-10T11:44:32.456Z,5.40
2023-04-10T11:46:59.813Z,5.60
2023-04-10T11:49:34.340Z,3.97
2023-04-10T11:52:01.619Z,4.07
2023-04-10T11:54:29.299Z,4.27
2023-04-10T11:57:01.252Z,3.60
2023-04-10T11:59:28.918Z,4.03
2023-04-10T12:02:05.735Z,3.73
2023-04-10T12:04:33.267Z,5.15
2023-04-10T12:07:01.064Z,4.35
2023-04-10T12:09:28.385Z,4.65
2023-04-10T12:11:56.029Z,3.78
2023-04-10T12:14:24.276Z,3.78
2023-04-10T12:16:52.779Z,3.87
2023-04-10T12:19:20.634Z,6.47
2023-04-10T12:21:48.148Z,5.20
2023-04-10T12:24:35.255Z,4.35
2023-04-10T12:27:02.811Z,2.85
2023-04-10T12:29:30.498Z,6.72
2023-04-10T12:31:57.686Z,5.57
2023-04-10T12:34:25.649Z,3.40
2023-04-10T12:36:54.041Z,3.50
2023-04-10T12:39:24.925Z,3.97
2023-04-10T12:41:52.098Z,3.92
2023-04-10T12:44:20.667Z,4.40
2023-04-10T12:46:47.856Z,3.95
2023-04-10T12:49:16.186Z,5.30
2023-04-10T12:51:50.546Z,4.55
2023-04-10T12:54:37.131Z,3.25
2023-04-10T12:57:04.647Z,4.63
2023-04-10T12:59:31.920Z,3.85
2023-04-10T13:01:59.384Z,4.57
2023-04-10T13:04:27.036Z,3.75
2023-04-10T13:06:54.344Z,4.90
2023-04-10T13:09:22.468Z,4.72
2023-04-10T13:11:51.530Z,5.82
2023-04-10T13:14:19.063Z,3.33
2023-04-10T13:16:46.969Z,4.63
2023-04-10T13:19:14.224Z,4.85
2023-04-10T13:21:41.424Z,3.70
2023-04-10T13:24:08.564Z,4.18
2023-04-10T13:26:35.816Z,3.85
2023-04-10T13:29:03.020Z,4.05
2023-04-10T13:31:30.339Z,4.82
2023-04-10T13:33:57.520Z,6.80
2023-04-10T13:36:24.763Z,4.90
2023-04-10T13:38:52.434Z,4.60
2023-04-10T13:41:20.621Z,5.28
2023-04-10T13:43:47.800Z,5.65
2023-04-10T13:46:14.968Z,3.45
2023-04-10T13:48:42.217Z,6.93
2023-04-10T13:51:09.375Z,4.32
2023-04-10T13:53:36.494Z,3.95
2023-04-10T13:56:03.682Z,4.53
2023-04-10T13:58:34.036Z,4.15
2023-04-10T14:01:01.573Z,4.30
2023-04-10T14:03:28.854Z,5.60
2023-04-10T14:05:56.152Z,5.10
2023-04-10T14:08:23.299Z,4.63
2023-04-10T14:10:53.326Z,5.17
2023-04-10T14:13:20.792Z,6.00
2023-04-10T14:15:48.035Z,5.40
2023-04-10T14:18:18.221Z,6.67
2023-04-10T14:20:45.504Z,6.23
2023-04-10T14:23:18.129Z,5.20
2023-04-10T14:25:46.119Z,5.57
2023-04-10T14:28:19.200Z,7.10
2023-04-10T14:30:48.366Z,5.70
2023-04-10T14:33:16.127Z,5.80
2023-04-10T14:35:44.127Z,6.43
2023-04-10T14:38:11.399Z,6.50
2023-04-10T14:40:40.629Z,5.63
2023-04-10T14:43:07.954Z,5.70
2023-04-10T14:45:35.445Z,6.90
2023-04-10T14:48:02.825Z,6.57
2023-04-10T14:50:32.694Z,7.27
2023-04-10T14:53:00.674Z,6.70
2023-04-10T14:55:30.024Z,7.03
2023-04-10T14:57:58.631Z,7.47
2023-04-10T15:00:26.436Z,6.80
2023-04-10T15:02:53.992Z,5.60
2023-04-10T15:05:23.180Z,5.27
2023-04-10T15:07:50.347Z,6.90
2023-04-10T15:10:17.579Z,7.50
2023-04-10T15:12:44.783Z,6.90
2023-04-10T15:15:11.993Z,6.20
2023-04-10T15:17:39.253Z,6.10
2023-04-10T15:20:06.679Z,7.80
2023-04-10T15:22:35.615Z,5.93
2023-04-10T15:25:02.874Z,7.47
2023-04-10T15:27:30.593Z,6.27
2023-04-10T15:29:57.711Z,5.00
2023-04-10T15:32:24.932Z,6.30
2023-04-10T15:34:52.140Z,6.63
2023-04-10T15:37:19.334Z,6.87
2023-04-10T15:39:46.482Z,6.87
2023-04-10T15:42:15.958Z,5.87
2023-04-10T15:44:43.144Z,6.93
2023-04-10T15:47:10.327Z,4.93
2023-04-10T15:49:38.753Z,7.50
2023-04-10T15:52:09.155Z,6.90
2023-04-10T15:54:36.443Z,7.27
2023-04-10T15:57:04.338Z,6.03
2023-04-10T15:59:32.097Z,6.17
2023-04-10T16:01:59.424Z,7.17
2023-04-10T16:04:26.648Z,5.87
2023-04-10T16:06:55.938Z,6.13
2023-04-10T16:09:26.375Z,5.40
2023-04-10T16:11:54.596Z,6.73
2023-04-10T16:14:22.482Z,5.90
2023-04-10T16:16:49.903Z,5.43
2023-04-10T16:19:17.102Z,5.60
2023-04-10T16:21:44.265Z,7.17
2023-04-10T16:24:11.408Z,7.53
2023-04-10T16:26:38.553Z,7.63
2023-04-10T16:29:06.496Z,5.57
2023-04-10T16:31:33.753Z,7.47
2023-04-10T16:34:01.309Z,7.93
2023-04-10T16:36:28.619Z,7.83
2023-04-10T16:38:55.879Z,6.93
2023-04-10T16:41:23.265Z,4.87
2023-04-10T16:43:50.523Z,7.53
2023-04-10T16:46:17.892Z,6.73
2023-04-10T16:48:45.299Z,6.63
2023-04-10T16:51:16.430Z,5.37
2023-04-10T16:53:43.677Z,5.70
2023-04-10T16:56:11.104Z,4.70
2023-04-10T16:58:38.675Z,6.43
2023-04-10T17:01:19.531Z,7.10
2023-04-10T17:03:47.658Z,5.67
2023-04-10T17:06:15.981Z,5.43
2023-04-10T17:08:43.504Z,6.00
2023-04-10T17:11:12.596Z,8.27
2023-04-10T17:13:40.525Z,5.00
2023-04-10T17:16:08.085Z,6.60
2023-04-10T17:18:35.250Z,6.07
2023-04-10T17:21:02.513Z,4.70
2023-04-10T17:23:30.244Z,6.07
2023-04-10T17:25:57.403Z,5.50
2023-04-10T17:28:24.549Z,6.90
2023-04-10T17:30:51.681Z,5.93
2023-04-10T17:33:18.847Z,6.80
2023-04-10T17:35:45.993Z,4.77
2023-04-10T17:38:13.313Z,6.10
2023-04-10T17:40:41.140Z,5.83
2023-04-10T17:43:08.502Z,5.80
2023-04-10T17:45:39.170Z,5.73
2023-04-10T17:48:06.969Z,5.53
2023-04-10T17:50:34.277Z,6.07
2023-04-10T17:53:01.534Z,6.17
2023-04-10T17:55:29.153Z,5.13
2023-04-10T17:57:57.734Z,3.47
2023-04-10T18:00:25.009Z,4.00
2023-04-10T18:02:57.958Z,3.63
2023-04-10T18:05:25.483Z,4.30
2023-04-10T18:07:52.636Z,4.60
2023-04-10T18:10:19.870Z,5.73
2023-04-10T18:12:47.023Z,4.30
2023-04-10T18:15:14.498Z,5.80
2023-04-10T18:17:41.853Z,4.57
2023-04-10T18:20:09.193Z,4.77
2023-04-10T18:22:36.355Z,4.73
2023-04-10T18:25:03.609Z,4.17
2023-04-10T18:27:31.810Z,5.23
2023-04-10T18:29:59.009Z,6.13
2023-04-10T18:32:26.242Z,3.90
2023-04-10T18:34:53.392Z,4.30
2023-04-10T18:37:20.523Z,4.10
2023-04-10T18:39:47.671Z,4.10
2023-04-10T18:42:14.851Z,4.57
2023-04-10T18:44:42.185Z,6.17
2023-04-10T18:47:11.059Z,6.90
2023-04-10T18:49:38.358Z,6.40
2023-04-10T18:52:05.576Z,4.80
2023-04-10T18:54:33.931Z,4.10
2023-04-10T18:57:01.113Z,6.17
2023-04-10T18:59:28.335Z,5.37
2023-04-10T19:01:55.659Z,5.37
2023-04-10T19:04:23.382Z,5.43
2023-04-10T19:06:51.277Z,4.37
2023-04-10T19:09:18.530Z,5.80
2023-04-10T19:11:45.733Z,5.27
2023-04-10T19:14:12.872Z,5.57
2023-04-10T19:16:40.000Z,5.60
2023-04-10T19:19:07.247Z,4.63
2023-04-10T19:21:34.576Z,7.60
2023-04-10T19:24:01.735Z,5.23
2023-04-10T19:26:28.900Z,4.57
2023-04-10T19:28:56.405Z,5.03
2023-04-10T19:31:27.341Z,7.40
2023-04-10T19:33:54.544Z,5.00
2023-04-10T19:36:21.823Z,4.87
2023-04-10T19:38:51.108Z,5.50
2023-04-10T19:41:18.577Z,5.47
2023-04-10T19:43:45.820Z,5.37
2023-04-10T19:46:16.523Z,6.13
2023-04-10T19:48:43.750Z,4.80
2023-04-10T19:51:10.920Z,5.30
2023-04-10T19:53:38.611Z,4.80
2023-04-10T19:56:06.134Z,4.40
2023-04-10T19:58:40.492Z,4.57
2023-04-10T20:01:08.958Z,5.80
2023-04-10T20:03:37.754Z,7.00
2023-04-10T20:06:07.214Z,5.37
2023-04-10T20:08:34.763Z,5.60
2023-04-10T20:11:02.148Z,5.50
2023-04-10T20:13:29.273Z,5.63
2023-04-10T20:15:56.474Z,5.43
2023-04-10T20:18:23.610Z,5.03
2023-04-10T20:20:50.793Z,5.80
2023-04-10T20:23:17.990Z,5.93
2023-04-10T20:25:45.804Z,6.70
2023-04-10T20:28:12.942Z,6.73
2023-04-10T20:30:40.272Z,6.17
2023-04-10T20:33:07.388Z,8.57
2023-04-10T20:35:34.620Z,6.73
2023-04-10T20:38:01.883Z,6.13
2023-04-10T20:40:29.024Z,5.63
2023-04-10T20:42:56.135Z,5.57
2023-04-10T20:45:23.308Z,5.63
2023-04-10T20:47:50.700Z,5.53
2023-04-10T20:50:17.930Z,7.10
2023-04-10T20:52:45.061Z,5.83
2023-04-10T20:55:12.232Z,6.83
2023-04-10T20:57:39.358Z,6.73
2023-04-10T21:00:06.907Z,6.97
2023-04-10T21:02:34.310Z,6.47
2023-04-10T21:05:01.706Z,5.80
2023-04-10T21:07:28.835Z,5.20
2023-04-10T21:09:55.965Z,6.10
2023-04-10T21:12:23.473Z,6.47
2023-04-10T21:14:50.704Z,6.97
2023-04-10T21:17:18.774Z,5.70
2023-04-10T21:19:45.945Z,8.00
2023-04-10T21:22:13.141Z,6.63
2023-04-10T21:24:40.300Z,5.60
2023-04-10T21:27:08.095Z,8.33
2023-04-10T21:29:35.438Z,5.67
2023-04-10T21:32:02.620Z,6.63
2023-04-10T21:34:30.421Z,6.13
2023-04-10T21:36:57.558Z,6.73
2023-04-10T21:39:24.696Z,5.70
2023-04-10T21:41:52.021Z,6.53
2023-04-10T21:44:19.197Z,7.57
2023-04-10T21:46:46.377Z,8.00
2023-04-10T21:49:13.665Z,6.40
2023-04-10T21:51:41.096Z,7.07
2023-04-10T21:54:08.347Z,5.80
2023-04-10T21:56:36.690Z,6.43
2023-04-10T21:59:03.893Z,7.10
2023-04-10T22:01:31.083Z,7.53
2023-04-10T22:03:58.395Z,7.57
2023-04-10T22:06:26.660Z,5.93
2023-04-10T22:08:53.952Z,10.00
2023-04-10T22:11:21.265Z,6.93
2023-04-10T22:13:48.439Z,7.30
2023-04-10T22:16:15.692Z,8.13
2023-04-10T22:18:42.828Z,7.50
2023-04-10T22:21:10.046Z,9.90
2023-04-10T22:23:37.236Z,7.60
2023-04-10T22:26:04.378Z,9.20
2023-04-10T22:28:31.540Z,7.50
2023-04-10T22:30:58.770Z,9.90
2023-04-10T22:33:26.009Z,8.33
2023-04-10T22:35:53.861Z,7.93
2023-04-10T22:38:21.150Z,8.53
2023-04-10T22:40:48.282Z,8.23
2023-04-10T22:43:15.412Z,7.43
2023-04-10T22:45:42.663Z,9.07
2023-04-10T22:48:09.821Z,8.33
2023-04-10T22:50:37.128Z,7.77
2023-04-10T22:53:04.243Z,7.57
2023-04-10T22:55:31.394Z,7.50
2023-04-10T22:57:58.502Z,7.37
2023-04-10T23:00:25.691Z,7.77
2023-04-10T23:02:52.970Z,9.80
2023-04-10T23:05:20.398Z,7.47
2023-04-10T23:07:47.518Z,7.77
2023-04-10T23:10:14.647Z,7.77
2023-04-10T23:12:41.784Z,8.03
2023-04-10T23:15:09.141Z,8.60
2023-04-10T23:17:36.351Z,8.50
2023-04-10T23:20:03.509Z,8.07
2023-04-10T23:22:31.068Z,7.03
2023-04-10T23:24:58.246Z,6.90
2023-04-10T23:27:25.670Z,7.03
2023-04-10T23:29:52.881Z,6.50
2023-04-10T23:32:20.204Z,7.80
2023-04-10T23:34:47.435Z,7.80
2023-04-10T23:37:14.698Z,6.53
2023-04-10T23:39:41.875Z,8.17
2023-04-10T23:42:09.014Z,9.37
2023-04-10T23:44:36.435Z,8.23
2023-04-10T23:47:03.737Z,6.57
2023-04-10T23:49:30.915Z,6.30
2023-04-10T23:51:58.080Z,8.10
2023-04-10T23:54:25.185Z,8.03
2023-04-10T23:56:52.355Z,7.43
2023-04-10T23:59:19.948Z,7.53
